Saginaw, Michigan
Current Conditions -  °F | °C
As of 11:14 AM on Tuesday 21 Oct 2014 (Local Time) from KHYX Reporting Station
Overcast Overcast  
Wind Chill: 41°   Ceiling: 2500
Heat Index: 46°   Visibility: 10mi
Dew Point: 37°   Wind: 13mph
Humidity: 71%   Direction: 10°N
Pressure: 30.08"   Gusts: 18mph
Location:  43.42°N, 83.95°W
Report Text: KHYX 211514Z AUTO 01011G16KT 10SM OVC025 08/03 A3008 RMK AO2
Loading
Personal Weather Stations






























Interactive Weather Map
Tropical Storm Tracking
New forecast layout! Learn more

10-Day Weather Forecast

Advertisements
Track Severe Weather on mobile